Terminal Aerodrome Forecast
Issued by NWS

Home | Current Version | Previous Version | Text Only | Print | Product List | Glossary On
Versions: 1 2 3 4 5 6 7 8 9 10 11 12 13 14 15 16 17 18 19
000
FTUS46 KMTR 281134
TAFSNS
TAF
KSNS 281134Z 2812/2912 VRB03KT 6SM BR OVC003
      TEMPO 2812/2816 1SM BR
     FM281700 VRB03KT P6SM SKC
     FM281900 29007KT P6SM SKC
     FM282100 28015KT P6SM SKC
     FM290300 30010KT P6SM OVC006
     FM290500 30008KT P6SM OVC003
      TEMPO 2907/2911 1SM BR=

USA.gov is the U.S. government's official web portal to all federal, state and local government web resources and services.